sensor_id;sensor_type;location;lat;lon;timestamp;pressure;altitude;pressure_sealevel;temperature;humidity
6216;BME280;3141;49.234;9.326;2024-01-30T00:00:14;101067.88;;;3.70;80.78
6216;BME280;3141;49.234;9.326;2024-01-30T00:00:57;101059.41;;;3.65;80.84
6216;BME280;3141;49.234;9.326;2024-01-30T00:01:39;101053.31;;;3.65;80.65
6216;BME280;3141;49.234;9.326;2024-01-30T00:02:21;101064.03;;;3.60;80.92
6216;BME280;3141;49.234;9.326;2024-01-30T00:03:04;101063.25;;;3.58;81.16
6216;BME280;3141;49.234;9.326;2024-01-30T00:03:46;101061.94;;;3.67;81.16
6216;BME280;3141;49.234;9.326;2024-01-30T00:04:28;101061.78;;;3.70;80.93
6216;BME280;3141;49.234;9.326;2024-01-30T00:05:11;101056.53;;;3.70;81.20
6216;BME280;3141;49.234;9.326;2024-01-30T00:05:53;101054.63;;;3.73;80.78
6216;BME280;3141;49.234;9.326;2024-01-30T00:06:35;101054.63;;;3.73;80.42
6216;BME280;3141;49.234;9.326;2024-01-30T00:07:18;101057.09;;;3.76;80.10
6216;BME280;3141;49.234;9.326;2024-01-30T00:08:01;101058.78;;;3.77;80.36
6216;BME280;3141;49.234;9.326;2024-01-30T00:08:43;101063.16;;;3.77;80.62
6216;BME280;3141;49.234;9.326;2024-01-30T00:09:28;101063.25;;;3.75;80.04
6216;BME280;3141;49.234;9.326;2024-01-30T00:10:11;101055.72;;;3.69;80.60
6216;BME280;3141;49.234;9.326;2024-01-30T00:10:53;101056.78;;;3.65;80.15
6216;BME280;3141;49.234;9.326;2024-01-30T00:11:36;101048.34;;;3.60;80.55
6216;BME280;3141;49.234;9.326;2024-01-30T00:12:18;101054.56;;;3.58;80.61
6216;BME280;3141;49.234;9.326;2024-01-30T00:13:00;101057.09;;;3.59;81.24
6216;BME280;3141;49.234;9.326;2024-01-30T00:13:42;101049.19;;;3.61;81.06
6216;BME280;3141;49.234;9.326;2024-01-30T00:14:25;101056.03;;;3.63;81.13
6216;BME280;3141;49.234;9.326;2024-01-30T00:15:07;101058.72;;;3.62;81.09
6216;BME280;3141;49.234;9.326;2024-01-30T00:15:51;101056.41;;;3.55;81.08
6216;BME280;3141;49.234;9.326;2024-01-30T00:16:34;101056.66;;;3.51;81.37
6216;BME280;3141;49.234;9.326;2024-01-30T00:17:16;101058.03;;;3.58;81.13
6216;BME280;3141;49.234;9.326;2024-01-30T00:17:58;101059.72;;;3.59;80.72
6216;BME280;3141;49.234;9.326;2024-01-30T00:18:40;101048.63;;;3.54;81.04
6216;BME280;3141;49.234;9.326;2024-01-30T00:19:23;101056.66;;;3.51;80.99
6216;BME280;3141;49.234;9.326;2024-01-30T00:20:05;101053.25;;;3.49;80.89
6216;BME280;3141;49.234;9.326;2024-01-30T00:20:49;101061.28;;;3.46;80.53
6216;BME280;3141;49.234;9.326;2024-01-30T00:21:31;101056.03;;;3.46;80.68
6216;BME280;3141;49.234;9.326;2024-01-30T00:22:13;101057.72;;;3.47;80.45
6216;BME280;3141;49.234;9.326;2024-01-30T00:22:56;101048.03;;;3.49;80.92
6216;BME280;3141;49.234;9.326;2024-01-30T00:23:39;101046.34;;;3.48;80.55
6216;BME280;3141;49.234;9.326;2024-01-30T00:24:21;101054.03;;;3.51;80.15
6216;BME280;3141;49.234;9.326;2024-01-30T00:25:04;101058.19;;;3.55;80.44
6216;BME280;3141;49.234;9.326;2024-01-30T00:25:47;101053.94;;;3.52;80.09
6216;BME280;3141;49.234;9.326;2024-01-30T00:26:29;101060.94;;;3.52;80.30
6216;BME280;3141;49.234;9.326;2024-01-30T00:27:12;101056.50;;;3.54;79.61
6216;BME280;3141;49.234;9.326;2024-01-30T00:27:54;101058.31;;;3.52;79.70
6216;BME280;3141;49.234;9.326;2024-01-30T00:28:37;101060.03;;;3.53;79.56
6216;BME280;3141;49.234;9.326;2024-01-30T00:29:20;101057.41;;;3.53;79.52
6216;BME280;3141;49.234;9.326;2024-01-30T00:30:04;101060.03;;;3.53;79.79
6216;BME280;3141;49.234;9.326;2024-01-30T00:30:47;101056.50;;;3.54;79.93
6216;BME280;3141;49.234;9.326;2024-01-30T00:31:29;101057.59;;;3.50;79.97
6216;BME280;3141;49.234;9.326;2024-01-30T00:32:13;101061.88;;;3.51;80.08
6216;BME280;3141;49.234;9.326;2024-01-30T00:32:55;101052.44;;;3.48;80.10
6216;BME280;3141;49.234;9.326;2024-01-30T00:33:38;101063.81;;;3.47;80.18
6216;BME280;3141;49.234;9.326;2024-01-30T00:34:21;101059.44;;;3.48;79.93
6216;BME280;3141;49.234;9.326;2024-01-30T00:35:04;101063.63;;;3.50;80.42
6216;BME280;3141;49.234;9.326;2024-01-30T00:35:48;101057.66;;;3.48;80.13
6216;BME280;3141;49.234;9.326;2024-01-30T00:36:30;101058.34;;;3.35;80.28
6216;BME280;3141;49.234;9.326;2024-01-30T00:37:12;101057.72;;;3.30;81.12
6216;BME280;3141;49.234;9.326;2024-01-30T00:37:55;101058.41;;;3.33;80.95
6216;BME280;3141;49.234;9.326;2024-01-30T00:38:37;101063.44;;;3.38;80.86
6216;BME280;3141;49.234;9.326;2024-01-30T00:39:20;101057.50;;;3.34;81.11
6216;BME280;3141;49.234;9.326;2024-01-30T00:40:02;101064.50;;;3.34;81.10
6216;BME280;3141;49.234;9.326;2024-01-30T00:40:45;101057.59;;;3.33;81.25
6216;BME280;3141;49.234;9.326;2024-01-30T00:41:28;101056.03;;;3.29;81.28
6216;BME280;3141;49.234;9.326;2024-01-30T00:42:10;101056.19;;;3.26;81.24
6216;BME280;3141;49.234;9.326;2024-01-30T00:42:52;101056.94;;;3.28;81.43
6216;BME280;3141;49.234;9.326;2024-01-30T00:43:35;101055.34;;;3.25;81.62
6216;BME280;3141;49.234;9.326;2024-01-30T00:44:17;101055.19;;;3.28;80.86
6216;BME280;3141;49.234;9.326;2024-01-30T00:45:00;101056.03;;;3.29;80.73
6216;BME280;3141;49.234;9.326;2024-01-30T00:45:45;101059.44;;;3.31;80.71
6216;BME280;3141;49.234;9.326;2024-01-30T00:46:28;101051.59;;;3.31;80.99
6216;BME280;3141;49.234;9.326;2024-01-30T00:47:10;101050.91;;;3.27;80.80
6216;BME280;3141;49.234;9.326;2024-01-30T00:47:52;101056.19;;;3.26;81.20
6216;BME280;3141;49.234;9.326;2024-01-30T00:48:35;101056.50;;;3.37;80.89
6216;BME280;3141;49.234;9.326;2024-01-30T00:49:17;101059.72;;;3.42;80.62
6216;BME280;3141;49.234;9.326;2024-01-30T00:50:00;101055.59;;;3.38;80.39
6216;BME280;3141;49.234;9.326;2024-01-30T00:50:43;101054.91;;;3.34;80.61
6216;BME280;3141;49.234;9.326;2024-01-30T00:51:25;101051.44;;;3.34;80.89
6216;BME280;3141;49.234;9.326;2024-01-30T00:52:07;101058.13;;;3.39;80.24
6216;BME280;3141;49.234;9.326;2024-01-30T00:52:50;101056.19;;;3.43;80.13
6216;BME280;3141;49.234;9.326;2024-01-30T00:53:32;101055.19;;;3.45;79.94
6216;BME280;3141;49.234;9.326;2024-01-30T00:54:15;101057.78;;;3.45;79.98
6216;BME280;3141;49.234;9.326;2024-01-30T00:54:58;101052.91;;;3.39;79.96
6216;BME280;3141;49.234;9.326;2024-01-30T00:55:41;101060.81;;;3.38;80.32
6216;BME280;3141;49.234;9.326;2024-01-30T00:56:23;101052.41;;;3.31;80.74
6216;BME280;3141;49.234;9.326;2024-01-30T00:57:07;101060.41;;;3.28;81.19
6216;BME280;3141;49.234;9.326;2024-01-30T00:57:49;101063.81;;;3.30;80.97
6216;BME280;3141;49.234;9.326;2024-01-30T00:58:31;101058.41;;;3.33;81.07
6216;BME280;3141;49.234;9.326;2024-01-30T00:59:14;101056.50;;;3.37;80.24
6216;BME280;3141;49.234;9.326;2024-01-30T00:59:57;101060.94;;;3.35;80.40
6216;BME280;3141;49.234;9.326;2024-01-30T01:00:39;101060.03;;;3.36;80.63
6216;BME280;3141;49.234;9.326;2024-01-30T01:01:22;101057.19;;;3.40;80.15
6216;BME280;3141;49.234;9.326;2024-01-30T01:02:04;101052.97;;;3.38;80.06
6216;BME280;3141;49.234;9.326;2024-01-30T01:02:46;101057.88;;;3.44;80.08
6216;BME280;3141;49.234;9.326;2024-01-30T01:03:29;101056.97;;;3.45;80.09
6216;BME280;3141;49.234;9.326;2024-01-30T01:04:11;101059.63;;;3.43;80.00
6216;BME280;3141;49.234;9.326;2024-01-30T01:04:54;101063.09;;;3.44;79.65
6216;BME280;3141;49.234;9.326;2024-01-30T01:05:36;101060.66;;;3.41;79.71
6216;BME280;3141;49.234;9.326;2024-01-30T01:06:18;101050.19;;;3.41;79.57
6216;BME280;3141;49.234;9.326;2024-01-30T01:07:01;101054.41;;;3.43;79.71
6216;BME280;3141;49.234;9.326;2024-01-30T01:07:44;101059.63;;;3.43;79.37
6216;BME280;3141;49.234;9.326;2024-01-30T01:08:27;101059.72;;;3.42;79.27
6216;BME280;3141;49.234;9.326;2024-01-30T01:09:12;101055.44;;;3.41;79.82
6216;BME280;3141;49.234;9.326;2024-01-30T01:09:55;101062.50;;;3.39;80.10
6216;BME280;3141;49.234;9.326;2024-01-30T01:10:37;101054.75;;;3.37;79.96
6216;BME280;3141;49.234;9.326;2024-01-30T01:11:19;101060.19;;;3.33;79.69
6216;BME280;3141;49.234;9.326;2024-01-30T01:12:02;101056.94;;;3.28;80.21
6216;BME280;3141;49.234;9.326;2024-01-30T01:12:45;101058.56;;;3.30;80.26
6216;BME280;3141;49.234;9.326;2024-01-30T01:13:27;101061.88;;;3.34;80.12
6216;BME280;3141;49.234;9.326;2024-01-30T01:14:10;101056.94;;;3.28;80.58
6216;BME280;3141;49.234;9.326;2024-01-30T01:14:52;101061.44;;;3.26;80.77
6216;BME280;3141;49.234;9.326;2024-01-30T01:15:35;101061.19;;;3.30;80.62
6216;BME280;3141;49.234;9.326;2024-01-30T01:16:17;101056.66;;;3.34;80.54
6216;BME280;3141;49.234;9.326;2024-01-30T01:16:59;101062.66;;;3.36;80.44
6216;BME280;3141;49.234;9.326;2024-01-30T01:17:42;101061.88;;;3.34;80.16
6216;BME280;3141;49.234;9.326;2024-01-30T01:18:24;101057.44;;;3.36;80.33
6216;BME280;3141;49.234;9.326;2024-01-30T01:19:06;101067.72;;;3.39;80.19
6216;BME280;3141;49.234;9.326;2024-01-30T01:19:49;101055.44;;;3.41;79.77
6216;BME280;3141;49.234;9.326;2024-01-30T01:20:31;101062.41;;;3.40;79.75
6216;BME280;3141;49.234;9.326;2024-01-30T01:21:13;101064.13;;;3.41;79.56
6216;BME280;3141;49.234;9.326;2024-01-30T01:21:56;101068.41;;;3.42;79.42
6216;BME280;3141;49.234;9.326;2024-01-30T01:22:39;101058.81;;;3.43;79.42
6216;BME280;3141;49.234;9.326;2024-01-30T01:23:22;101065.88;;;3.41;80.07
6216;BME280;3141;49.234;9.326;2024-01-30T01:24:04;101067.63;;;3.40;80.22
6216;BME280;3141;49.234;9.326;2024-01-30T01:24:47;101069.28;;;3.43;79.96
6216;BME280;3141;49.234;9.326;2024-01-30T01:25:29;101065.81;;;3.42;79.51
6216;BME280;3141;49.234;9.326;2024-01-30T01:26:11;101061.50;;;3.41;79.92
6216;BME280;3141;49.234;9.326;2024-01-30T01:26:54;101069.28;;;3.43;79.30
6216;BME280;3141;49.234;9.326;2024-01-30T01:27:36;101071.03;;;3.42;79.51
6216;BME280;3141;49.234;9.326;2024-01-30T01:28:22;101065.97;;;3.39;79.57
6216;BME280;3141;49.234;9.326;2024-01-30T01:29:06;101067.72;;;3.39;79.91
6216;BME280;3141;49.234;9.326;2024-01-30T01:29:53;101069.09;;;3.29;80.17
6216;BME280;3141;49.234;9.326;2024-01-30T01:30:35;101063.28;;;3.24;80.20
6216;BME280;3141;49.234;9.326;2024-01-30T01:31:18;101063.88;;;3.29;80.53
6216;BME280;3141;49.234;9.326;2024-01-30T01:32:00;101074.63;;;3.23;80.24
6216;BME280;3141;49.234;9.326;2024-01-30T01:32:42;101072.88;;;3.23;80.35
6216;BME280;3141;49.234;9.326;2024-01-30T01:33:32;101065.97;;;3.22;81.08
6216;BME280;3141;49.234;9.326;2024-01-30T01:34:15;101068.50;;;3.24;80.84
6216;BME280;3141;49.234;9.326;2024-01-30T01:34:57;101069.88;;;3.14;80.80
6216;BME280;3141;49.234;9.326;2024-01-30T01:35:40;101064.84;;;3.09;81.58
6216;BME280;3141;49.234;9.326;2024-01-30T01:36:22;101067.09;;;3.17;80.80
6216;BME280;3141;49.234;9.326;2024-01-30T01:37:05;101060.25;;;3.14;80.85
6216;BME280;3141;49.234;9.326;2024-01-30T01:37:49;101070.16;;;3.08;81.25
6216;BME280;3141;49.234;9.326;2024-01-30T01:38:36;101065.09;;;3.05;81.05
6216;BME280;3141;49.234;9.326;2024-01-30T01:39:19;101063.09;;;3.10;81.59
6216;BME280;3141;49.234;9.326;2024-01-30T01:40:01;101070.94;;;3.10;81.02
6216;BME280;3141;49.234;9.326;2024-01-30T01:40:43;101065.00;;;3.06;81.41
6216;BME280;3141;49.234;9.326;2024-01-30T01:41:30;101066.06;;;3.02;81.50
6216;BME280;3141;49.234;9.326;2024-01-30T01:42:13;101072.38;;;2.98;81.54
6216;BME280;3141;49.234;9.326;2024-01-30T01:42:55;101072.00;;;3.06;81.41
6216;BME280;3141;49.234;9.326;2024-01-30T01:43:37;101070.06;;;3.09;81.47
6216;BME280;3141;49.234;9.326;2024-01-30T01:44:21;101068.09;;;3.14;81.70
6216;BME280;3141;49.234;9.326;2024-01-30T01:45:03;101064.50;;;3.17;80.75
6216;BME280;3141;49.234;9.326;2024-01-30T01:45:46;101069.91;;;3.12;80.89
6216;BME280;3141;49.234;9.326;2024-01-30T01:46:32;101067.25;;;3.14;81.77
6216;BME280;3141;49.234;9.326;2024-01-30T01:47:15;101067.09;;;3.17;81.14
6216;BME280;3141;49.234;9.326;2024-01-30T01:47:57;101067.88;;;3.19;81.13
6216;BME280;3141;49.234;9.326;2024-01-30T01:48:40;101071.38;;;3.18;81.01
6216;BME280;3141;49.234;9.326;2024-01-30T01:49:25;101064.25;;;3.21;81.21
6216;BME280;3141;49.234;9.326;2024-01-30T01:50:07;101061.56;;;3.23;80.91
6216;BME280;3141;49.234;9.326;2024-01-30T01:50:51;101065.72;;;3.27;80.47
6216;BME280;3141;49.234;9.326;2024-01-30T01:51:35;101068.19;;;3.30;80.47
6216;BME280;3141;49.234;9.326;2024-01-30T01:52:18;101064.94;;;3.25;80.25
6216;BME280;3141;49.234;9.326;2024-01-30T01:53:01;101068.34;;;3.27;80.70
6216;BME280;3141;49.234;9.326;2024-01-30T01:53:44;101064.78;;;3.28;80.62
6216;BME280;3141;49.234;9.326;2024-01-30T01:54:27;101058.75;;;3.27;80.51
6216;BME280;3141;49.234;9.326;2024-01-30T01:55:12;101065.81;;;3.25;80.53
6216;BME280;3141;49.234;9.326;2024-01-30T01:55:55;101062.50;;;3.22;80.30
6216;BME280;3141;49.234;9.326;2024-01-30T01:56:38;101058.50;;;3.15;80.40
6216;BME280;3141;49.234;9.326;2024-01-30T01:57:21;101070.94;;;3.10;80.57
6216;BME280;3141;49.234;9.326;2024-01-30T01:58:04;101066.00;;;3.04;80.88
6216;BME280;3141;49.234;9.326;2024-01-30T01:58:47;101061.84;;;3.00;81.54
6216;BME280;3141;49.234;9.326;2024-01-30T01:59:31;101063.78;;;2.96;81.96
6216;BME280;3141;49.234;9.326;2024-01-30T02:00:14;101062.91;;;2.96;81.46
6216;BME280;3141;49.234;9.326;2024-01-30T02:00:58;101064.81;;;2.92;82.09
6216;BME280;3141;49.234;9.326;2024-01-30T02:01:41;101065.38;;;2.99;82.06
6216;BME280;3141;49.234;9.326;2024-01-30T02:02:24;101066.38;;;2.96;82.35
6216;BME280;3141;49.234;9.326;2024-01-30T02:03:10;101062.75;;;2.99;81.85
6216;BME280;3141;49.234;9.326;2024-01-30T02:03:53;101062.75;;;2.99;81.94
6216;BME280;3141;49.234;9.326;2024-01-30T02:04:35;101063.53;;;3.01;82.49
6216;BME280;3141;49.234;9.326;2024-01-30T02:05:18;101059.69;;;2.91;82.06
6216;BME280;3141;49.234;9.326;2024-01-30T02:06:01;101053.47;;;2.93;82.40
6216;BME280;3141;49.234;9.326;2024-01-30T02:06:45;101059.31;;;2.98;82.40
6216;BME280;3141;49.234;9.326;2024-01-30T02:07:30;101056.63;;;3.00;81.98
6216;BME280;3141;49.234;9.326;2024-01-30T02:08:12;101063.00;;;2.94;82.06
6216;BME280;3141;49.234;9.326;2024-01-30T02:08:55;101057.84;;;2.93;81.68
6216;BME280;3141;49.234;9.326;2024-01-30T02:09:37;101065.59;;;2.94;82.18
6216;BME280;3141;49.234;9.326;2024-01-30T02:10:19;101054.22;;;2.95;82.34
6216;BME280;3141;49.234;9.326;2024-01-30T02:11:02;101056.72;;;2.98;82.17
6216;BME280;3141;49.234;9.326;2024-01-30T02:11:44;101059.09;;;3.03;82.05
6216;BME280;3141;49.234;9.326;2024-01-30T02:12:27;101058.84;;;3.07;81.76
6216;BME280;3141;49.234;9.326;2024-01-30T02:13:09;101056.25;;;3.07;81.59
6216;BME280;3141;49.234;9.326;2024-01-30T02:13:52;101057.94;;;3.08;80.76
6216;BME280;3141;49.234;9.326;2024-01-30T02:14:44;101058.94;;;3.06;80.88
6216;BME280;3141;49.234;9.326;2024-01-30T02:15:27;101065.78;;;3.08;80.89
6216;BME280;3141;49.234;9.326;2024-01-30T02:16:09;101062.09;;;3.12;80.24
6216;BME280;3141;49.234;9.326;2024-01-30T02:16:52;101062.94;;;3.13;80.02
6216;BME280;3141;49.234;9.326;2024-01-30T02:17:34;101060.56;;;3.08;80.42
6216;BME280;3141;49.234;9.326;2024-01-30T02:18:17;101064.84;;;3.09;80.44
6216;BME280;3141;49.234;9.326;2024-01-30T02:18:59;101059.47;;;3.12;80.25
6216;BME280;3141;49.234;9.326;2024-01-30T02:19:41;101059.41;;;3.14;79.87
6216;BME280;3141;49.234;9.326;2024-01-30T02:20:24;101065.56;;;3.13;80.43
6216;BME280;3141;49.234;9.326;2024-01-30T02:21:07;101060.03;;;3.19;80.19
6216;BME280;3141;49.234;9.326;2024-01-30T02:21:51;101067.88;;;3.19;79.90
6216;BME280;3141;49.234;9.326;2024-01-30T02:22:35;101060.25;;;3.14;80.09
6216;BME280;3141;49.234;9.326;2024-01-30T02:23:19;101061.19;;;3.13;79.80
6216;BME280;3141;49.234;9.326;2024-01-30T02:24:02;101049.00;;;3.12;79.73
6216;BME280;3141;49.234;9.326;2024-01-30T02:24:45;101055.94;;;3.13;80.33
6216;BME280;3141;49.234;9.326;2024-01-30T02:25:36;101060.25;;;3.14;80.04
6216;BME280;3141;49.234;9.326;2024-01-30T02:26:19;101059.41;;;3.14;79.84
6216;BME280;3141;49.234;9.326;2024-01-30T02:27:01;101058.66;;;3.12;79.83
6216;BME280;3141;49.234;9.326;2024-01-30T02:27:43;101057.88;;;3.10;79.67
6216;BME280;3141;49.234;9.326;2024-01-30T02:28:26;101057.88;;;3.10;80.00
6216;BME280;3141;49.234;9.326;2024-01-30T02:29:09;101063.19;;;3.08;80.12
6216;BME280;3141;49.234;9.326;2024-01-30T02:29:52;101059.78;;;3.06;80.03
6216;BME280;3141;49.234;9.326;2024-01-30T02:30:34;101058.84;;;3.07;80.04
6216;BME280;3141;49.234;9.326;2024-01-30T02:31:16;101056.41;;;3.04;80.65
6216;BME280;3141;49.234;9.326;2024-01-30T02:31:59;101061.94;;;2.98;80.55
6216;BME280;3141;49.234;9.326;2024-01-30T02:32:41;101063.63;;;2.99;80.94
6216;BME280;3141;49.234;9.326;2024-01-30T02:33:23;101063.47;;;3.02;81.13
6216;BME280;3141;49.234;9.326;2024-01-30T02:34:05;101059.09;;;3.03;80.72
6216;BME280;3141;49.234;9.326;2024-01-30T02:34:48;101066.00;;;3.04;80.82
6216;BME280;3141;49.234;9.326;2024-01-30T02:35:30;101062.69;;;3.00;80.92
6216;BME280;3141;49.234;9.326;2024-01-30T02:36:12;101071.22;;;3.04;80.92
6216;BME280;3141;49.234;9.326;2024-01-30T02:36:55;101066.00;;;3.04;80.93
6216;BME280;3141;49.234;9.326;2024-01-30T02:37:37;101070.16;;;3.08;80.33
6216;BME280;3141;49.234;9.326;2024-01-30T02:38:19;101065.72;;;3.10;80.34
6216;BME280;3141;49.234;9.326;2024-01-30T02:39:03;101069.25;;;3.09;79.82
6216;BME280;3141;49.234;9.326;2024-01-30T02:39:46;101065.78;;;3.08;79.73
6216;BME280;3141;49.234;9.326;2024-01-30T02:40:29;101060.47;;;3.10;80.19
6216;BME280;3141;49.234;9.326;2024-01-30T02:41:11;101065.88;;;3.07;79.62
6216;BME280;3141;49.234;9.326;2024-01-30T02:41:53;101060.75;;;3.04;79.99
6216;BME280;3141;49.234;9.326;2024-01-30T02:42:37;101066.84;;;3.04;80.30
6216;BME280;3141;49.234;9.326;2024-01-30T02:43:19;101058.53;;;2.96;80.29
6216;BME280;3141;49.234;9.326;2024-01-30T02:44:03;101061.34;;;2.92;80.86
6216;BME280;3141;49.234;9.326;2024-01-30T02:44:45;101056.59;;;2.83;81.13
6216;BME280;3141;49.234;9.326;2024-01-30T02:45:27;101051.59;;;2.78;81.27
6216;BME280;3141;49.234;9.326;2024-01-30T02:46:11;101052.28;;;2.82;81.57
6216;BME280;3141;49.234;9.326;2024-01-30T02:46:53;101061.66;;;2.86;81.41
6216;BME280;3141;49.234;9.326;2024-01-30T02:47:36;101062.38;;;2.89;81.41
6216;BME280;3141;49.234;9.326;2024-01-30T02:48:18;101060.47;;;2.93;80.90
6216;BME280;3141;49.234;9.326;2024-01-30T02:49:01;101062.84;;;2.97;80.39
6216;BME280;3141;49.234;9.326;2024-01-30T02:49:43;101062.69;;;3.00;80.60
6216;BME280;3141;49.234;9.326;2024-01-30T02:50:26;101062.63;;;3.02;80.40
6216;BME280;3141;49.234;9.326;2024-01-30T02:51:08;101061.34;;;2.92;80.21
6216;BME280;3141;49.234;9.326;2024-01-30T02:51:51;101060.13;;;2.82;80.98
6216;BME280;3141;49.234;9.326;2024-01-30T02:52:33;101063.66;;;2.81;81.41
6216;BME280;3141;49.234;9.326;2024-01-30T02:53:16;101061.81;;;2.83;81.22
6216;BME280;3141;49.234;9.326;2024-01-30T02:53:58;101052.09;;;2.86;81.76
6216;BME280;3141;49.234;9.326;2024-01-30T02:54:42;101062.44;;;2.88;81.45
6216;BME280;3141;49.234;9.326;2024-01-30T02:55:25;101059.69;;;2.91;81.36
6216;BME280;3141;49.234;9.326;2024-01-30T02:56:07;101062.44;;;2.88;81.06
6216;BME280;3141;49.234;9.326;2024-01-30T02:56:51;101060.81;;;2.85;81.05
6216;BME280;3141;49.234;9.326;2024-01-30T02:57:34;101064.13;;;2.89;81.22
6216;BME280;3141;49.234;9.326;2024-01-30T02:58:16;101063.50;;;2.84;81.24
6216;BME280;3141;49.234;9.326;2024-01-30T02:58:58;101057.44;;;2.83;81.35
6216;BME280;3141;49.234;9.326;2024-01-30T02:59:41;101056.38;;;2.87;81.36
6216;BME280;3141;49.234;9.326;2024-01-30T03:00:25;101058.00;;;2.90;81.03
6216;BME280;3141;49.234;9.326;2024-01-30T03:01:09;101060.66;;;2.88;81.11
6216;BME280;3141;49.234;9.326;2024-01-30T03:01:51;101060.13;;;2.82;80.86
6216;BME280;3141;49.234;9.326;2024-01-30T03:02:34;101059.28;;;2.81;81.46
6216;BME280;3141;49.234;9.326;2024-01-30T03:03:16;101048.28;;;2.75;81.47
6216;BME280;3141;49.234;9.326;2024-01-30T03:03:59;101057.88;;;2.74;81.72
6216;BME280;3141;49.234;9.326;2024-01-30T03:04:42;101054.28;;;2.77;81.70
6216;BME280;3141;49.234;9.326;2024-01-30T03:05:24;101059.97;;;2.85;81.31
6216;BME280;3141;49.234;9.326;2024-01-30T03:06:07;101052.00;;;2.88;81.36
6216;BME280;3141;49.234;9.326;2024-01-30T03:06:50;101056.91;;;2.94;80.60
6216;BME280;3141;49.234;9.326;2024-01-30T03:07:33;101060.31;;;2.96;80.91
6216;BME280;3141;49.234;9.326;2024-01-30T03:08:15;101051.84;;;2.91;80.65
6216;BME280;3141;49.234;9.326;2024-01-30T03:08:57;101056.44;;;2.86;80.17
6216;BME280;3141;49.234;9.326;2024-01-30T03:09:41;101052.22;;;2.83;80.70
6216;BME280;3141;49.234;9.326;2024-01-30T03:10:26;101049.59;;;2.83;80.55
6216;BME280;3141;49.234;9.326;2024-01-30T03:11:10;101054.53;;;2.89;80.91
6216;BME280;3141;49.234;9.326;2024-01-30T03:11:52;101052.78;;;2.90;80.83
6216;BME280;3141;49.234;9.326;2024-01-30T03:12:35;101044.00;;;2.91;80.29
6216;BME280;3141;49.234;9.326;2024-01-30T03:13:17;101051.63;;;2.95;80.00
6216;BME280;3141;49.234;9.326;2024-01-30T03:13:59;101051.06;;;2.89;80.46
6216;BME280;3141;49.234;9.326;2024-01-30T03:14:41;101050.53;;;2.82;80.61
6216;BME280;3141;49.234;9.326;2024-01-30T03:15:24;101054.06;;;2.81;80.96
6216;BME280;3141;49.234;9.326;2024-01-30T03:16:08;101056.72;;;2.80;80.78
6216;BME280;3141;49.234;9.326;2024-01-30T03:16:50;101051.38;;;2.83;80.66
6216;BME280;3141;49.234;9.326;2024-01-30T03:17:33;101049.47;;;2.86;80.64
6216;BME280;3141;49.234;9.326;2024-01-30T03:18:15;101052.81;;;2.88;80.39
6216;BME280;3141;49.234;9.326;2024-01-30T03:18:57;101058.03;;;2.88;80.00
6216;BME280;3141;49.234;9.326;2024-01-30T03:19:39;101057.22;;;2.88;80.11
6216;BME280;3141;49.234;9.326;2024-01-30T03:20:22;101048.47;;;2.89;80.04
6216;BME280;3141;49.234;9.326;2024-01-30T03:21:05;101056.22;;;2.90;80.53
6216;BME280;3141;49.234;9.326;2024-01-30T03:21:47;101050.00;;;2.93;80.33
6216;BME280;3141;49.234;9.326;2024-01-30T03:22:29;101053.47;;;2.93;80.12
6216;BME280;3141;49.234;9.326;2024-01-30T03:23:12;101055.31;;;2.91;79.73
6216;BME280;3141;49.234;9.326;2024-01-30T03:23:54;101054.38;;;2.92;80.04
6216;BME280;3141;49.234;9.326;2024-01-30T03:24:36;101055.16;;;2.94;80.05
6216;BME280;3141;49.234;9.326;2024-01-30T03:25:18;101058.63;;;2.95;79.92
6216;BME280;3141;49.234;9.326;2024-01-30T03:26:01;101055.06;;;2.96;79.69
6216;BME280;3141;49.234;9.326;2024-01-30T03:26:43;101061.22;;;2.95;79.73
6216;BME280;3141;49.234;9.326;2024-01-30T03:27:25;101058.69;;;2.93;79.07
6216;BME280;3141;49.234;9.326;2024-01-30T03:28:08;101056.00;;;2.95;79.81
6216;BME280;3141;49.234;9.326;2024-01-30T03:28:50;101061.44;;;2.90;79.30
6216;BME280;3141;49.234;9.326;2024-01-30T03:29:32;101056.13;;;2.92;79.42
6216;BME280;3141;49.234;9.326;2024-01-30T03:30:15;101057.16;;;2.89;79.51
6216;BME280;3141;49.234;9.326;2024-01-30T03:30:57;101053.69;;;2.89;79.96
6216;BME280;3141;49.234;9.326;2024-01-30T03:31:40;101052.13;;;2.85;79.42
6216;BME280;3141;49.234;9.326;2024-01-30T03:32:22;101064.63;;;2.78;79.67
6216;BME280;3141;49.234;9.326;2024-01-30T03:33:04;101063.66;;;2.81;80.26
6216;BME280;3141;49.234;9.326;2024-01-30T03:33:47;101060.81;;;2.85;79.64
6216;BME280;3141;49.234;9.326;2024-01-30T03:34:29;101065.19;;;2.85;80.08
6216;BME280;3141;49.234;9.326;2024-01-30T03:35:11;101059.84;;;2.88;79.96
6216;BME280;3141;49.234;9.326;2024-01-30T03:35:54;101061.53;;;2.89;79.19
6216;BME280;3141;49.234;9.326;2024-01-30T03:36:36;101065.19;;;2.85;79.24
6216;BME280;3141;49.234;9.326;2024-01-30T03:37:19;101062.56;;;2.85;79.51
6216;BME280;3141;49.234;9.326;2024-01-30T03:38:01;101058.19;;;2.85;79.72
6216;BME280;3141;49.234;9.326;2024-01-30T03:38:43;101059.91;;;2.86;79.46
6216;BME280;3141;49.234;9.326;2024-01-30T03:39:25;101061.66;;;2.86;79.41
6216;BME280;3141;49.234;9.326;2024-01-30T03:40:08;101062.53;;;2.86;79.03
6216;BME280;3141;49.234;9.326;2024-01-30T03:40:51;101059.97;;;2.85;79.65
6216;BME280;3141;49.234;9.326;2024-01-30T03:41:33;101064.44;;;2.83;79.66
6216;BME280;3141;49.234;9.326;2024-01-30T03:42:15;101060.13;;;2.82;79.59
6216;BME280;3141;49.234;9.326;2024-01-30T03:42:58;101065.34;;;2.82;79.33
6216;BME280;3141;49.234;9.326;2024-01-30T03:43:40;101064.44;;;2.83;79.36
6216;BME280;3141;49.234;9.326;2024-01-30T03:44:22;101058.28;;;2.84;79.59
6216;BME280;3141;49.234;9.326;2024-01-30T03:45:05;101063.66;;;2.81;79.27
6216;BME280;3141;49.234;9.326;2024-01-30T03:45:47;101066.13;;;2.84;79.32
6216;BME280;3141;49.234;9.326;2024-01-30T03:46:30;101066.13;;;2.84;79.46
6216;BME280;3141;49.234;9.326;2024-01-30T03:47:12;101065.34;;;2.82;79.37
6216;BME280;3141;49.234;9.326;2024-01-30T03:47:54;101067.31;;;2.77;79.62
6216;BME280;3141;49.234;9.326;2024-01-30T03:48:37;101060.13;;;2.82;79.14
6216;BME280;3141;49.234;9.326;2024-01-30T03:49:19;101059.97;;;2.85;79.41
6216;BME280;3141;49.234;9.326;2024-01-30T03:50:01;101052.97;;;2.85;79.29
6216;BME280;3141;49.234;9.326;2024-01-30T03:50:44;101067.69;;;2.88;79.44
6216;BME280;3141;49.234;9.326;2024-01-30T03:51:26;101063.34;;;2.87;79.09
6216;BME280;3141;49.234;9.326;2024-01-30T03:52:08;101062.53;;;2.86;79.03
6216;BME280;3141;49.234;9.326;2024-01-30T03:52:51;101069.66;;;2.83;79.25